createdAt,value
2023-05-05T00:00:44.832Z,74.11
2023-05-05T00:01:48.403Z,74.30
2023-05-05T00:02:52.329Z,74.59
2023-05-05T00:03:56.061Z,75.25
2023-05-05T00:04:58.776Z,75.22
2023-05-05T00:06:02.572Z,75.17
2023-05-05T00:07:05.226Z,75.57
2023-05-05T00:08:08.785Z,75.62
2023-05-05T00:09:11.121Z,75.82
2023-05-05T00:10:14.883Z,76.18
2023-05-05T00:11:17.549Z,76.34
2023-05-05T00:12:21.206Z,76.39
2023-05-05T00:13:23.505Z,76.38
2023-05-05T00:14:27.147Z,76.46
2023-05-05T00:15:29.843Z,76.60
2023-05-05T00:16:33.680Z,76.57
2023-05-05T00:17:36.499Z,76.92
2023-05-05T00:18:41.477Z,76.98
2023-05-05T00:19:44.079Z,77.00
2023-05-05T00:20:48.357Z,76.90
2023-05-05T00:21:52.386Z,77.02
2023-05-05T00:22:55.940Z,77.10
2023-05-05T00:23:58.171Z,77.13
2023-05-05T00:25:01.801Z,77.00
2023-05-05T00:26:23.332Z,77.26
2023-05-05T00:27:27.275Z,77.28
2023-05-05T00:28:29.730Z,77.34
2023-05-05T00:29:33.651Z,77.12
2023-05-05T00:30:36.665Z,77.15
2023-05-05T00:31:40.544Z,76.93
2023-05-05T00:32:43.172Z,76.84
2023-05-05T00:33:48.379Z,76.75
2023-05-05T00:34:51.021Z,76.70
2023-05-05T00:35:54.829Z,76.27
2023-05-05T00:36:59.237Z,76.63
2023-05-05T00:38:03.189Z,76.36
2023-05-05T00:39:06.863Z,76.46
2023-05-05T00:40:10.793Z,76.44
2023-05-05T00:41:14.569Z,76.16
2023-05-05T00:42:17.201Z,76.19
2023-05-05T00:43:21.256Z,76.09
2023-05-05T00:44:37.348Z,75.80
2023-05-05T00:45:43.094Z,76.08
2023-05-05T00:46:46.213Z,76.27
2023-05-05T00:47:51.619Z,76.17
2023-05-05T00:48:56.464Z,76.12
2023-05-05T00:50:00.408Z,76.38
2023-05-05T00:51:03.044Z,76.42
2023-05-05T00:52:08.078Z,76.21
2023-05-05T00:53:11.815Z,76.51
2023-05-05T00:54:14.469Z,76.55
2023-05-05T00:55:18.540Z,76.54
2023-05-05T00:56:23.469Z,76.52
2023-05-05T00:57:26.495Z,76.73
2023-05-05T00:58:30.866Z,76.83
2023-05-05T00:59:34.264Z,76.98
2023-05-05T01:00:37.992Z,77.05
2023-05-05T01:01:40.280Z,77.07
2023-05-05T01:02:44.201Z,77.18
2023-05-05T01:03:47.086Z,77.27
2023-05-05T01:04:52.944Z,77.36
2023-05-05T01:06:06.302Z,77.20
2023-05-05T01:07:17.527Z,77.53
2023-05-05T01:08:37.227Z,77.35
2023-05-05T01:09:50.695Z,77.33
2023-05-05T01:11:04.785Z,77.43
2023-05-05T01:12:16.979Z,77.48
2023-05-05T01:13:29.957Z,77.45
2023-05-05T01:14:39.880Z,77.45
2023-05-05T01:15:50.061Z,77.84
2023-05-05T01:16:59.373Z,77.54
2023-05-05T01:18:15.662Z,77.46
2023-05-05T01:19:29.014Z,77.50
2023-05-05T01:20:42.075Z,77.55
2023-05-05T01:21:50.147Z,77.69
2023-05-05T01:22:58.801Z,77.54
2023-05-05T01:24:23.820Z,77.74
2023-05-05T01:25:57.867Z,77.48
2023-05-05T01:27:21.322Z,77.41
2023-05-05T01:28:31.697Z,77.19
2023-05-05T01:30:02.415Z,77.13
2023-05-05T01:31:18.297Z,77.25
2023-05-05T01:32:27.923Z,77.30
2023-05-05T01:33:37.285Z,77.48
2023-05-05T01:34:45.616Z,77.57
2023-05-05T01:35:52.783Z,77.63
2023-05-05T01:37:04.911Z,77.40
2023-05-05T01:38:14.194Z,77.66
2023-05-05T01:39:19.402Z,77.68
2023-05-05T01:40:26.468Z,77.59
2023-05-05T01:41:33.792Z,77.66
2023-05-05T01:42:38.437Z,77.54
2023-05-05T01:43:46.021Z,77.73
2023-05-05T01:44:50.079Z,77.59
2023-05-05T01:45:56.214Z,77.48
2023-05-05T01:47:01.647Z,77.78
2023-05-05T01:48:08.642Z,77.59
2023-05-05T01:49:12.314Z,77.69
2023-05-05T01:50:17.819Z,77.51
2023-05-05T01:51:23.594Z,77.33
2023-05-05T01:52:29.430Z,77.42
2023-05-05T01:53:33.077Z,77.46
2023-05-05T01:54:37.551Z,77.28
2023-05-05T01:55:41.057Z,77.58
2023-05-05T01:56:44.680Z,77.29
2023-05-05T01:57:50.106Z,77.32
2023-05-05T01:58:56.134Z,77.52
2023-05-05T01:59:59.358Z,77.05
2023-05-05T02:01:04.211Z,77.10
2023-05-05T02:02:09.572Z,77.07
2023-05-05T02:03:16.948Z,76.94
2023-05-05T02:04:22.973Z,76.55
2023-05-05T02:05:28.182Z,76.67
2023-05-05T02:06:32.758Z,76.66
2023-05-05T02:07:37.451Z,76.46
2023-05-05T02:08:42.172Z,76.28
2023-05-05T02:09:46.434Z,76.32
2023-05-05T02:10:50.406Z,76.13
2023-05-05T02:11:54.636Z,76.11
2023-05-05T02:12:59.550Z,75.68
2023-05-05T02:14:04.583Z,75.66
2023-05-05T02:15:09.290Z,75.63
2023-05-05T02:16:14.663Z,75.79
2023-05-05T02:17:19.018Z,75.60
2023-05-05T02:18:26.196Z,75.36
2023-05-05T02:19:32.316Z,75.45
2023-05-05T02:20:37.587Z,75.26
2023-05-05T02:21:41.649Z,74.98
2023-05-05T02:22:45.701Z,74.83
2023-05-05T02:23:52.035Z,74.79
2023-05-05T02:24:56.251Z,74.74
2023-05-05T02:26:06.660Z,74.42
2023-05-05T02:27:12.372Z,74.36
2023-05-05T02:28:21.297Z,74.17
2023-05-05T02:29:31.491Z,74.05
2023-05-05T02:30:36.956Z,74.09
2023-05-05T02:31:45.596Z,73.94
2023-05-05T02:32:54.271Z,73.66
2023-05-05T02:34:01.679Z,73.63
2023-05-05T02:35:11.283Z,73.29
2023-05-05T02:36:20.652Z,73.29
2023-05-05T02:37:27.808Z,73.03
2023-05-05T02:38:34.281Z,73.02
2023-05-05T02:39:43.778Z,73.04
2023-05-05T02:40:49.757Z,73.20
2023-05-05T02:41:54.604Z,73.16
2023-05-05T02:43:00.330Z,72.94
2023-05-05T02:44:05.707Z,72.78
2023-05-05T02:45:16.649Z,72.72
2023-05-05T02:46:19.891Z,72.42
2023-05-05T02:47:23.540Z,72.40
2023-05-05T02:48:25.750Z,72.19
2023-05-05T02:49:31.114Z,71.96
2023-05-05T02:50:33.911Z,71.93
2023-05-05T02:51:37.458Z,71.90
2023-05-05T02:52:40.371Z,71.92
2023-05-05T02:53:44.216Z,71.81
2023-05-05T02:54:46.874Z,71.49
2023-05-05T02:55:54.481Z,71.65
2023-05-05T02:56:58.322Z,71.37
2023-05-05T02:58:07.971Z,71.38
2023-05-05T02:59:16.480Z,71.54
2023-05-05T03:00:25.961Z,71.53
2023-05-05T03:01:33.808Z,71.25
2023-05-05T03:02:53.287Z,71.28
2023-05-05T03:04:05.141Z,70.87
2023-05-05T03:05:14.646Z,70.82
2023-05-05T03:06:20.044Z,70.88
2023-05-05T03:07:27.678Z,70.52
2023-05-05T03:08:40.282Z,70.54
2023-05-05T03:09:51.722Z,70.55
2023-05-05T03:11:00.912Z,69.95
2023-05-05T03:12:07.190Z,69.91
2023-05-05T03:13:12.043Z,69.53
2023-05-05T03:14:18.533Z,69.66
2023-05-05T03:15:26.413Z,69.42
2023-05-05T03:16:32.606Z,69.23
2023-05-05T03:17:36.973Z,69.48
2023-05-05T03:18:42.678Z,69.47
2023-05-05T03:19:45.448Z,69.08
2023-05-05T03:20:51.020Z,69.04
2023-05-05T03:21:54.596Z,69.05
2023-05-05T03:22:58.618Z,68.83
2023-05-05T03:24:01.296Z,68.86
2023-05-05T03:25:05.233Z,68.49
2023-05-05T03:26:07.795Z,68.41
2023-05-05T03:27:11.332Z,68.56
2023-05-05T03:28:14.444Z,68.46
2023-05-05T03:29:18.415Z,68.18
2023-05-05T03:30:21.131Z,68.11
2023-05-05T03:31:24.922Z,67.97
2023-05-05T03:32:27.561Z,67.96
2023-05-05T03:33:31.257Z,67.78
2023-05-05T03:34:34.019Z,67.73
2023-05-05T03:35:37.611Z,67.61
2023-05-05T03:36:42.374Z,67.60
2023-05-05T03:37:44.898Z,67.49
2023-05-05T03:38:49.157Z,67.57
2023-05-05T03:39:51.642Z,67.55
2023-05-05T03:40:55.256Z,67.15
2023-05-05T03:41:57.396Z,66.72
2023-05-05T03:43:01.076Z,66.35
2023-05-05T03:44:03.347Z,66.32
2023-05-05T03:45:07.722Z,66.07
2023-05-05T03:46:10.827Z,66.37
2023-05-05T03:47:14.502Z,66.18
2023-05-05T03:48:16.763Z,66.05
2023-05-05T03:49:20.015Z,66.07
2023-05-05T03:50:24.505Z,65.95
2023-05-05T03:51:28.274Z,66.22
2023-05-05T03:52:32.613Z,66.01
2023-05-05T03:53:36.391Z,65.91
2023-05-05T03:54:39.974Z,65.63
2023-05-05T03:55:42.215Z,65.50
2023-05-05T03:56:45.680Z,65.14
2023-05-05T03:57:48.159Z,65.22
2023-05-05T03:58:51.967Z,65.43
2023-05-05T03:59:54.566Z,65.24
2023-05-05T04:00:58.236Z,64.97
2023-05-05T04:02:00.525Z,65.01
2023-05-05T04:03:04.463Z,64.85
2023-05-05T04:04:07.096Z,64.87
2023-05-05T04:05:11.245Z,64.96
2023-05-05T04:06:13.750Z,64.64
2023-05-05T04:07:17.293Z,64.25
2023-05-05T04:08:21.231Z,64.17
2023-05-05T04:09:24.885Z,64.22
2023-05-05T04:10:27.222Z,64.00
2023-05-05T04:11:31.486Z,64.10
2023-05-05T04:12:34.118Z,63.94
2023-05-05T04:13:37.879Z,63.51
2023-05-05T04:14:40.705Z,63.51
2023-05-05T04:15:47.209Z,63.17
2023-05-05T04:16:49.742Z,63.21
2023-05-05T04:17:53.314Z,62.97
2023-05-05T04:18:55.668Z,62.86
2023-05-05T04:19:58.884Z,62.58
2023-05-05T04:21:01.461Z,62.17
2023-05-05T04:22:05.041Z,62.07
2023-05-05T04:23:07.406Z,61.94
2023-05-05T04:24:12.668Z,62.10
2023-05-05T04:25:15.356Z,62.37
2023-05-05T04:26:18.993Z,62.21
2023-05-05T04:27:21.542Z,62.26
2023-05-05T04:28:25.140Z,62.35
2023-05-05T04:29:27.345Z,62.21
2023-05-05T04:30:30.887Z,62.64
2023-05-05T04:31:33.501Z,62.17
2023-05-05T04:32:37.123Z,62.06
2023-05-05T04:33:39.268Z,61.85
2023-05-05T04:34:42.776Z,61.74
2023-05-05T04:35:45.232Z,61.59
2023-05-05T04:36:48.913Z,61.56
2023-05-05T04:37:51.475Z,61.33
2023-05-05T04:38:55.156Z,61.40
2023-05-05T04:39:59.347Z,61.28
2023-05-05T04:41:06.575Z,61.26
2023-05-05T04:42:09.398Z,61.01
2023-05-05T04:43:13.510Z,60.81
2023-05-05T04:44:16.167Z,60.63
2023-05-05T04:45:19.835Z,60.25
2023-05-05T04:46:22.346Z,60.16
2023-05-05T04:47:26.192Z,60.08
2023-05-05T04:48:28.721Z,59.99
2023-05-05T04:49:32.593Z,59.67
2023-05-05T04:50:35.162Z,59.56
2023-05-05T04:51:42.038Z,59.38
2023-05-05T04:52:44.669Z,59.57
2023-05-05T04:53:48.770Z,59.72
2023-05-05T04:54:51.314Z,59.74
2023-05-05T04:55:56.332Z,59.63
2023-05-05T04:56:59.399Z,59.61
2023-05-05T04:58:03.162Z,59.96
2023-05-05T04:59:06.303Z,60.01
2023-05-05T05:00:11.119Z,60.00
2023-05-05T05:01:13.814Z,60.16
2023-05-05T05:02:17.424Z,60.43
2023-05-05T05:03:20.070Z,59.82
2023-05-05T05:04:24.120Z,59.51
2023-05-05T05:05:26.912Z,59.44
2023-05-05T05:06:30.712Z,59.74
2023-05-05T05:07:33.275Z,59.62
2023-05-05T05:08:36.939Z,59.38
2023-05-05T05:09:39.455Z,59.09
2023-05-05T05:10:43.782Z,58.91
2023-05-05T05:11:47.844Z,58.89
2023-05-05T05:12:51.406Z,59.00
2023-05-05T05:13:53.687Z,58.76
2023-05-05T05:14:57.340Z,58.78
2023-05-05T05:15:59.602Z,58.08
2023-05-05T05:17:02.862Z,58.30
2023-05-05T05:18:05.585Z,58.03
2023-05-05T05:19:09.376Z,58.03
2023-05-05T05:20:11.860Z,57.86
2023-05-05T05:21:15.532Z,57.46
2023-05-05T05:22:17.714Z,57.41
2023-05-05T05:23:21.018Z,57.16
2023-05-05T05:24:25.651Z,57.35
2023-05-05T05:25:28.304Z,57.29
2023-05-05T05:26:31.975Z,57.11
2023-05-05T05:27:35.923Z,56.81
2023-05-05T05:28:39.512Z,56.87
2023-05-05T05:29:41.799Z,56.98
2023-05-05T05:30:45.403Z,57.06
2023-05-05T05:31:47.699Z,57.35
2023-05-05T05:32:51.339Z,56.87
2023-05-05T05:33:53.516Z,56.67
2023-05-05T05:34:56.875Z,56.59
2023-05-05T05:35:59.890Z,56.44
2023-05-05T05:37:03.477Z,56.59
2023-05-05T05:38:05.638Z,56.88
2023-05-05T05:39:08.950Z,56.46
2023-05-05T05:40:12.224Z,56.36
2023-05-05T05:41:15.870Z,56.62
2023-05-05T05:42:17.995Z,56.29
2023-05-05T05:43:22.779Z,56.01
2023-05-05T05:44:25.247Z,56.08
2023-05-05T05:45:28.867Z,55.89
2023-05-05T05:46:32.131Z,56.10
2023-05-05T05:47:34.658Z,56.63
2023-05-05T05:48:38.379Z,56.34
2023-05-05T05:49:40.939Z,56.55
2023-05-05T05:50:44.764Z,56.29
2023-05-05T05:51:47.765Z,55.92
2023-05-05T05:52:51.345Z,55.79
2023-05-05T05:53:53.729Z,55.34
2023-05-05T05:54:57.798Z,55.56
2023-05-05T05:56:01.680Z,55.84
2023-05-05T05:57:05.535Z,55.66
2023-05-05T05:58:08.098Z,55.29
2023-05-05T05:59:13.269Z,55.56
2023-05-05T06:00:16.506Z,54.89
2023-05-05T06:01:21.461Z,54.47
2023-05-05T06:02:24.121Z,54.11
2023-05-05T06:03:28.092Z,53.95
2023-05-05T06:04:31.207Z,54.26
2023-05-05T06:05:34.803Z,54.33
2023-05-05T06:06:37.078Z,54.36
2023-05-05T06:07:40.507Z,54.13
2023-05-05T06:08:43.305Z,54.47
2023-05-05T06:09:47.044Z,54.31
2023-05-05T06:10:49.805Z,54.20
2023-05-05T06:11:53.891Z,53.88
2023-05-05T06:12:56.703Z,53.62
2023-05-05T06:14:00.319Z,53.44
2023-05-05T06:15:04.165Z,53.51
2023-05-05T06:16:09.215Z,53.22
2023-05-05T06:17:11.992Z,53.00
2023-05-05T06:18:16.695Z,52.91
2023-05-05T06:19:20.401Z,52.84
2023-05-05T06:20:22.930Z,52.39
2023-05-05T06:21:28.006Z,52.60
2023-05-05T06:22:30.694Z,52.15
2023-05-05T06:23:34.434Z,52.28
2023-05-05T06:24:37.070Z,52.19
2023-05-05T06:25:41.345Z,51.97
2023-05-05T06:26:45.051Z,51.59
2023-05-05T06:27:47.727Z,51.88
2023-05-05T06:28:51.471Z,51.56
2023-05-05T06:29:54.125Z,51.60
2023-05-05T06:30:59.056Z,49.69
2023-05-05T06:32:01.612Z,49.42
2023-05-05T06:33:05.479Z,49.31
2023-05-05T06:34:08.097Z,49.70
2023-05-05T06:35:12.047Z,50.06
2023-05-05T06:36:14.968Z,50.11
2023-05-05T06:37:18.704Z,50.52
2023-05-05T06:38:22.756Z,50.03
2023-05-05T06:39:25.367Z,50.42
2023-05-05T06:40:28.942Z,50.60
2023-05-05T06:41:31.163Z,50.70
2023-05-05T06:42:34.415Z,50.73
2023-05-05T06:43:37.050Z,50.46
2023-05-05T06:44:40.591Z,50.21
2023-05-05T06:45:43.997Z,49.55
2023-05-05T06:46:49.479Z,49.61
2023-05-05T06:47:52.705Z,49.60
2023-05-05T06:48:56.569Z,49.67
2023-05-05T06:49:59.151Z,49.44
2023-05-05T06:51:03.123Z,49.45
2023-05-05T06:52:05.793Z,49.23
2023-05-05T06:53:09.939Z,47.94
2023-05-05T06:54:12.613Z,48.08
2023-05-05T06:55:17.338Z,48.30
2023-05-05T06:56:20.036Z,48.17
2023-05-05T06:57:23.721Z,48.34
2023-05-05T06:58:26.321Z,48.41
2023-05-05T06:59:30.015Z,48.48
2023-05-05T07:00:33.797Z,48.55
2023-05-05T07:01:36.330Z,47.90
2023-05-05T07:02:41.480Z,48.35
2023-05-05T07:03:44.587Z,47.46
2023-05-05T07:04:48.364Z,47.19
2023-05-05T07:05:54.035Z,46.93
2023-05-05T07:06:58.469Z,47.34
2023-05-05T07:08:02.153Z,46.80
2023-05-05T07:09:04.787Z,46.38
2023-05-05T07:10:10.145Z,46.71
2023-05-05T07:11:12.847Z,46.68
2023-05-05T07:12:16.441Z,46.48
2023-05-05T07:13:18.698Z,45.73
2023-05-05T07:14:24.374Z,45.14
2023-05-05T07:15:29.636Z,45.05
2023-05-05T07:16:34.977Z,44.51
2023-05-05T07:17:37.617Z,44.54
2023-05-05T07:18:42.757Z,44.29
2023-05-05T07:19:45.314Z,44.08
2023-05-05T07:20:49.113Z,43.93
2023-05-05T07:21:52.646Z,44.03
2023-05-05T07:22:55.987Z,43.56
2023-05-05T07:23:58.595Z,43.27
2023-05-05T07:25:02.267Z,43.80
2023-05-05T07:26:06.283Z,43.42
2023-05-05T07:27:08.947Z,43.38
2023-05-05T07:28:12.870Z,43.40
2023-05-05T07:29:15.332Z,42.63
2023-05-05T07:30:19.452Z,42.75
2023-05-05T07:31:22.543Z,43.02
2023-05-05T07:32:26.605Z,42.80
2023-05-05T07:33:30.236Z,42.69
2023-05-05T07:34:38.074Z,42.45
2023-05-05T07:35:41.900Z,42.18
2023-05-05T07:36:46.508Z,42.97
2023-05-05T07:37:50.344Z,42.73
2023-05-05T07:38:53.167Z,42.16
2023-05-05T07:39:56.958Z,42.40
2023-05-05T07:40:59.646Z,42.82
2023-05-05T07:42:03.595Z,42.54
2023-05-05T07:43:07.276Z,42.32
2023-05-05T07:44:09.951Z,41.85
2023-05-05T07:45:13.928Z,42.30
2023-05-05T07:46:17.711Z,41.94
2023-05-05T07:47:20.696Z,42.22
2023-05-05T07:48:24.499Z,41.64
2023-05-05T07:49:27.255Z,40.47
2023-05-05T07:50:32.547Z,40.23
2023-05-05T07:51:35.177Z,38.73
2023-05-05T07:52:48.466Z,38.67
2023-05-05T07:53:55.562Z,38.38
2023-05-05T07:54:58.181Z,39.16
2023-05-05T07:56:01.980Z,39.70
2023-05-05T07:57:05.800Z,38.89
2023-05-05T07:58:11.184Z,38.47
2023-05-05T07:59:13.943Z,38.90
2023-05-05T08:00:19.647Z,39.05
2023-05-05T08:01:22.168Z,39.15
2023-05-05T08:02:25.994Z,39.42
2023-05-05T08:03:28.902Z,39.56
2023-05-05T08:04:32.629Z,39.40
2023-05-05T08:05:37.938Z,39.01
2023-05-05T08:06:40.459Z,38.38
2023-05-05T08:07:44.154Z,38.83
2023-05-05T08:08:47.041Z,38.99
2023-05-05T08:09:50.724Z,39.13
2023-05-05T08:10:54.703Z,38.95
2023-05-05T08:11:58.665Z,39.44
2023-05-05T08:13:02.491Z,38.76
2023-05-05T08:14:05.311Z,38.50
2023-05-05T08:15:09.840Z,38.63
2023-05-05T08:16:13.929Z,38.01
2023-05-05T08:17:19.568Z,38.48
2023-05-05T08:18:24.506Z,37.95
2023-05-05T08:19:29.567Z,38.05
2023-05-05T08:20:33.489Z,38.38
2023-05-05T08:21:37.676Z,38.26
2023-05-05T08:22:42.093Z,38.12
2023-05-05T08:23:45.798Z,38.23
2023-05-05T08:24:48.515Z,37.99
2023-05-05T08:25:52.816Z,38.48
2023-05-05T08:26:56.908Z,38.01
2023-05-05T08:28:00.809Z,38.37
2023-05-05T08:29:04.056Z,37.96
2023-05-05T08:30:09.460Z,37.90
2023-05-05T08:31:13.134Z,38.41
2023-05-05T08:32:16.487Z,38.35
2023-05-05T08:33:20.541Z,38.64
2023-05-05T08:34:24.200Z,37.89
2023-05-05T08:35:28.366Z,37.64
2023-05-05T08:36:31.233Z,37.76
2023-05-05T08:37:36.416Z,37.76
2023-05-05T08:38:40.324Z,37.98
2023-05-05T08:39:42.854Z,37.55
2023-05-05T08:40:47.412Z,37.41
2023-05-05T08:41:50.065Z,37.29
2023-05-05T08:42:53.822Z,36.47
2023-05-05T08:43:57.780Z,37.16
2023-05-05T08:45:01.513Z,36.72
2023-05-05T08:46:06.690Z,36.77
2023-05-05T08:47:11.714Z,37.01
2023-05-05T08:48:19.439Z,36.91
2023-05-05T08:49:24.660Z,36.42
2023-05-05T08:50:29.989Z,36.20
2023-05-05T08:51:45.249Z,36.81
2023-05-05T08:52:55.403Z,37.06
2023-05-05T08:54:03.684Z,36.61
2023-05-05T08:55:14.057Z,36.83
2023-05-05T08:56:20.205Z,36.65
2023-05-05T08:57:29.026Z,36.67
2023-05-05T08:58:33.360Z,37.09
2023-05-05T08:59:38.647Z,36.75
2023-05-05T09:00:43.106Z,37.04
2023-05-05T09:01:47.142Z,36.72
2023-05-05T09:02:50.793Z,36.34
2023-05-05T09:03:55.048Z,36.44
2023-05-05T09:04:57.827Z,36.03
2023-05-05T09:06:01.694Z,36.08
2023-05-05T09:07:04.593Z,35.62
2023-05-05T09:08:10.110Z,35.42
2023-05-05T09:09:15.154Z,35.95
2023-05-05T09:10:18.277Z,36.16
2023-05-05T09:11:22.786Z,36.21
2023-05-05T09:12:25.964Z,35.72
2023-05-05T09:13:31.329Z,35.44
2023-05-05T09:14:34.151Z,35.74
2023-05-05T09:15:39.279Z,36.20
2023-05-05T09:16:44.924Z,36.09
2023-05-05T09:17:47.759Z,36.19
2023-05-05T09:18:52.683Z,36.63
2023-05-05T09:20:04.540Z,36.50
2023-05-05T09:21:21.590Z,36.16
2023-05-05T09:22:33.834Z,36.72
2023-05-05T09:23:38.888Z,36.31
2023-05-05T09:24:55.554Z,36.29
2023-05-05T09:26:09.055Z,36.34
2023-05-05T09:27:24.561Z,36.39
2023-05-05T09:28:27.463Z,36.39
2023-05-05T09:29:31.446Z,35.83
2023-05-05T09:30:36.919Z,35.95
2023-05-05T09:31:41.299Z,35.43
2023-05-05T09:32:45.819Z,35.28
2023-05-05T09:33:50.343Z,35.60
2023-05-05T09:35:00.319Z,35.86
2023-05-05T09:36:04.361Z,35.74
2023-05-05T09:37:06.960Z,33.67
2023-05-05T09:38:13.932Z,34.61
2023-05-05T09:39:21.337Z,33.50
2023-05-05T09:40:24.920Z,33.57
2023-05-05T09:41:37.227Z,32.24
2023-05-05T09:42:41.999Z,32.04
2023-05-05T09:43:52.188Z,31.91
2023-05-05T09:44:57.859Z,32.08
2023-05-05T09:46:08.628Z,32.09
2023-05-05T09:47:26.054Z,31.26
2023-05-05T09:48:33.742Z,31.58
2023-05-05T09:49:38.247Z,31.74
2023-05-05T09:50:45.416Z,31.94
2023-05-05T09:51:49.517Z,31.46
2023-05-05T09:52:55.911Z,32.00
2023-05-05T09:53:59.545Z,31.21
2023-05-05T09:55:05.177Z,30.76
2023-05-05T09:56:08.723Z,31.32
2023-05-05T09:57:27.422Z,31.86
2023-05-05T09:58:32.466Z,31.35
2023-05-05T09:59:36.838Z,31.69
2023-05-05T10:00:39.644Z,31.89
2023-05-05T10:01:44.059Z,31.57
2023-05-05T10:02:50.986Z,31.81
2023-05-05T10:03:53.832Z,30.70
2023-05-05T10:05:07.150Z,30.40
2023-05-05T10:06:11.456Z,29.95
2023-05-05T10:07:25.453Z,29.56
2023-05-05T10:08:31.703Z,30.29
2023-05-05T10:09:35.840Z,30.09
2023-05-05T10:10:48.009Z,30.25
2023-05-05T10:11:51.080Z,30.27
2023-05-05T10:12:54.898Z,30.26
2023-05-05T10:13:58.586Z,30.73
2023-05-05T10:15:05.535Z,31.00
2023-05-05T10:16:11.336Z,30.57
2023-05-05T10:17:15.874Z,31.08
2023-05-05T10:18:23.431Z,30.48
2023-05-05T10:19:30.189Z,31.35
2023-05-05T10:20:35.100Z,31.67
2023-05-05T10:21:42.322Z,31.23
2023-05-05T10:22:51.813Z,30.75
2023-05-05T10:24:01.794Z,30.71
2023-05-05T10:25:12.826Z,31.06
2023-05-05T10:26:20.339Z,30.70
2023-05-05T10:27:26.059Z,29.97
2023-05-05T10:28:34.514Z,30.61
2023-05-05T10:29:47.139Z,30.35
2023-05-05T10:30:53.567Z,31.33
2023-05-05T10:32:21.404Z,30.84
2023-05-05T10:33:36.853Z,31.00
2023-05-05T10:34:50.210Z,30.75
2023-05-05T10:35:56.651Z,31.30
2023-05-05T10:37:00.619Z,30.97
2023-05-05T10:38:09.950Z,30.71
2023-05-05T10:39:15.788Z,30.86
2023-05-05T10:40:20.174Z,29.71
2023-05-05T10:41:26.369Z,29.55
2023-05-05T10:42:30.261Z,29.30
2023-05-05T10:43:33.035Z,29.65
2023-05-05T10:44:37.043Z,30.06
2023-05-05T10:45:41.895Z,30.08
2023-05-05T10:46:45.363Z,31.50
2023-05-05T10:47:49.142Z,31.06
2023-05-05T10:48:59.321Z,31.52
2023-05-05T10:50:08.323Z,32.12
2023-05-05T10:51:35.243Z,32.27
2023-05-05T10:52:49.134Z,32.20
2023-05-05T10:53:59.787Z,32.32
2023-05-05T10:55:10.941Z,31.88
2023-05-05T10:56:20.716Z,32.11
2023-05-05T10:57:30.126Z,32.33
2023-05-05T10:58:38.455Z,32.22
2023-05-05T10:59:47.915Z,32.28
2023-05-05T11:00:53.710Z,31.87
2023-05-05T11:01:58.493Z,31.96
2023-05-05T11:03:23.498Z,32.55
2023-05-05T11:04:26.172Z,32.10
2023-05-05T11:05:29.923Z,32.01
2023-05-05T11:06:33.148Z,31.58
2023-05-05T11:07:37.192Z,31.76
2023-05-05T11:08:42.550Z,32.16
2023-05-05T11:09:55.965Z,32.53
2023-05-05T11:11:00.251Z,32.30
2023-05-05T11:12:03.928Z,32.17
2023-05-05T11:13:22.507Z,32.38
2023-05-05T11:14:25.095Z,32.59
2023-05-05T11:15:37.996Z,32.19
2023-05-05T11:16:49.043Z,32.51
2023-05-05T11:17:51.903Z,32.22
2023-05-05T11:18:55.512Z,31.90
2023-05-05T11:19:58.161Z,32.22
2023-05-05T11:21:22.767Z,32.30
2023-05-05T11:22:25.580Z,32.78
2023-05-05T11:23:30.226Z,31.96
2023-05-05T11:24:34.251Z,32.58
2023-05-05T11:25:52.247Z,32.79
2023-05-05T11:26:56.170Z,32.67
2023-05-05T11:28:09.171Z,32.74
2023-05-05T11:29:15.066Z,33.06
2023-05-05T11:30:17.963Z,33.61
2023-05-05T11:31:21.742Z,33.54
2023-05-05T11:32:25.230Z,34.80
2023-05-05T11:33:30.725Z,34.98
2023-05-05T11:34:34.593Z,35.29
2023-05-05T11:35:56.162Z,35.65
2023-05-05T11:37:03.764Z,36.36
2023-05-05T11:38:08.850Z,37.32
2023-05-05T11:39:24.806Z,38.10
2023-05-05T11:40:36.963Z,38.85
2023-05-05T11:42:06.541Z,39.07
2023-05-05T11:43:13.323Z,39.84
2023-05-05T11:44:18.737Z,39.72
2023-05-05T11:45:24.304Z,39.33
2023-05-05T11:46:26.874Z,39.98
2023-05-05T11:47:34.592Z,39.38
2023-05-05T11:48:45.318Z,37.78
2023-05-05T11:49:49.187Z,37.56
2023-05-05T11:50:53.189Z,37.42
2023-05-05T11:51:59.543Z,37.19
2023-05-05T11:53:03.772Z,37.06
2023-05-05T11:54:06.617Z,36.86
2023-05-05T11:55:11.116Z,38.64
2023-05-05T11:56:19.392Z,39.14
2023-05-05T11:57:29.871Z,40.57
2023-05-05T11:58:33.533Z,41.76
2023-05-05T11:59:50.264Z,42.98
2023-05-05T12:00:53.985Z,43.23
2023-05-05T12:01:56.704Z,43.07
2023-05-05T12:03:01.082Z,43.83
2023-05-05T12:04:03.969Z,44.25
2023-05-05T12:05:08.803Z,44.16
2023-05-05T12:06:11.523Z,44.43
2023-05-05T12:07:19.365Z,44.45
2023-05-05T12:08:22.971Z,45.61
2023-05-05T12:09:25.860Z,46.05
2023-05-05T12:10:29.682Z,47.30
2023-05-05T12:11:32.441Z,46.21
2023-05-05T12:12:37.752Z,46.58
2023-05-05T12:13:41.875Z,46.64
2023-05-05T12:14:52.087Z,47.24
2023-05-05T12:15:56.564Z,47.62
2023-05-05T12:17:01.617Z,47.31
2023-05-05T12:18:08.863Z,47.08
2023-05-05T12:19:14.500Z,44.68
2023-05-05T12:20:18.180Z,44.51
2023-05-05T12:21:21.157Z,45.41
2023-05-05T12:22:26.971Z,45.81
2023-05-05T12:23:30.599Z,45.71
2023-05-05T12:24:34.555Z,45.43
2023-05-05T12:25:39.658Z,45.50
2023-05-05T12:26:42.502Z,45.72
2023-05-05T12:27:53.694Z,45.78
2023-05-05T12:28:56.802Z,46.38
2023-05-05T12:30:13.761Z,47.38
2023-05-05T12:31:16.905Z,47.52
2023-05-05T12:32:21.886Z,47.99
2023-05-05T12:33:26.137Z,48.38
2023-05-05T12:34:29.076Z,46.62
2023-05-05T12:35:33.478Z,46.68
2023-05-05T12:36:38.680Z,46.71
2023-05-05T12:37:42.943Z,45.47
2023-05-05T12:38:45.563Z,44.40
2023-05-05T12:39:49.857Z,43.94
2023-05-05T12:40:54.089Z,44.06
2023-05-05T12:42:04.635Z,43.94
2023-05-05T12:43:07.164Z,44.49
2023-05-05T12:44:10.865Z,44.05
2023-05-05T12:45:18.146Z,43.54
2023-05-05T12:46:22.386Z,43.24
2023-05-05T12:47:33.065Z,43.33
2023-05-05T12:48:38.168Z,42.83
2023-05-05T12:49:48.827Z,42.30
2023-05-05T12:50:52.490Z,41.92
2023-05-05T12:51:57.554Z,41.07
2023-05-05T12:53:00.184Z,40.35
2023-05-05T12:54:05.423Z,41.02
2023-05-05T12:55:09.260Z,41.28
2023-05-05T12:56:32.422Z,40.98
2023-05-05T12:57:36.786Z,40.21
2023-05-05T12:58:48.950Z,41.06
2023-05-05T12:59:52.971Z,40.86
2023-05-05T13:01:12.338Z,41.72
2023-05-05T13:02:16.659Z,40.26
2023-05-05T13:03:20.999Z,40.22
2023-05-05T13:04:24.667Z,40.13
2023-05-05T13:05:33.846Z,40.25
2023-05-05T13:06:36.854Z,40.92
2023-05-05T13:07:52.296Z,40.57
2023-05-05T13:08:54.737Z,40.64
2023-05-05T13:10:09.083Z,40.47
2023-05-05T13:11:11.631Z,40.29
2023-05-05T13:12:15.503Z,40.61
2023-05-05T13:13:18.220Z,40.20
2023-05-05T13:14:22.708Z,40.18
2023-05-05T13:15:25.321Z,40.17
2023-05-05T13:16:30.834Z,39.84
2023-05-05T13:17:34.954Z,40.65
2023-05-05T13:18:44.835Z,40.47
2023-05-05T13:19:48.802Z,40.73
2023-05-05T13:20:52.051Z,41.04
2023-05-05T13:21:56.659Z,40.48
2023-05-05T13:22:59.715Z,41.26
2023-05-05T13:24:18.337Z,41.08
2023-05-05T13:25:24.837Z,40.99
2023-05-05T13:26:27.992Z,41.33
2023-05-05T13:27:31.756Z,41.25
2023-05-05T13:28:34.541Z,41.36
2023-05-05T13:29:38.600Z,41.29
2023-05-05T13:30:42.111Z,40.81
2023-05-05T13:31:47.570Z,40.51
2023-05-05T13:32:51.249Z,40.74
2023-05-05T13:33:53.860Z,40.92
2023-05-05T13:34:58.231Z,40.31
2023-05-05T13:36:00.907Z,40.74
2023-05-05T13:37:04.626Z,40.23
2023-05-05T13:38:07.254Z,41.13
2023-05-05T13:39:11.541Z,41.87
2023-05-05T13:40:15.864Z,42.07
2023-05-05T13:41:18.728Z,42.41
2023-05-05T13:42:22.382Z,41.63
2023-05-05T13:43:24.969Z,41.93
2023-05-05T13:44:28.716Z,42.44
2023-05-05T13:45:31.617Z,42.82
2023-05-05T13:46:35.261Z,43.06
2023-05-05T13:47:41.110Z,43.65
2023-05-05T13:48:43.636Z,43.61
2023-05-05T13:49:47.321Z,44.36
2023-05-05T13:50:50.136Z,44.08
2023-05-05T13:51:53.853Z,44.19
2023-05-05T13:52:56.429Z,45.06
2023-05-05T13:54:00.640Z,45.33
2023-05-05T13:55:03.217Z,45.60
2023-05-05T13:56:08.405Z,45.36
2023-05-05T13:57:12.536Z,45.32
2023-05-05T13:58:15.214Z,44.88
2023-05-05T13:59:18.868Z,45.12
2023-05-05T14:00:21.962Z,44.49
2023-05-05T14:01:28.718Z,44.59
2023-05-05T14:02:31.302Z,43.73